Time;durP1;ratioP1;P1;durP2;ratioP2;P2;SDS_P1;SDS_P2;PMS_P1;PMS_P2;Temp;Humidity;BMP_temperature;BMP_pressure;BME280_temperature;BME280_humidity;BME280_pressure;Samples;Min_cycle;Max_cycle;Signal;HPM_P1;HPM_P2
2021/04/27 00:00:11;;;;;;;2.97;2.37;;;;;;;4.20;56.53;97564.19;5092754;28;20207;-66
2021/04/27 00:02:37;;;;;;;4.97;2.40;;;;;;;4.21;56.62;97558.88;5092777;28;20230;-66
2021/04/27 00:05:06;;;;;;;2.47;2.00;;;;;;;4.23;56.66;97564.03;5093014;28;20662;-65
2021/04/27 00:07:33;;;;;;;2.57;2.20;;;;;;;4.16;57.04;97555.66;5092798;28;20215;-67
2021/04/27 00:09:59;;;;;;;3.20;2.40;;;;;;;4.15;57.03;97553.16;5092922;28;20696;-67
2021/04/27 00:12:25;;;;;;;2.37;2.17;;;;;;;4.12;57.33;97551.53;5092687;28;20207;-69
2021/04/27 00:14:51;;;;;;;2.97;2.10;;;;;;;4.12;57.50;97555.91;5093582;28;20216;-68
2021/04/27 00:17:17;;;;;;;2.50;2.30;;;;;;;4.04;59.01;97545.00;5096674;28;20211;-68
2021/04/27 00:19:43;;;;;;;2.40;2.20;;;;;;;4.07;57.17;97537.84;5096341;28;20207;-68
2021/04/27 00:22:10;;;;;;;5.20;2.57;;;;;;;4.05;57.76;97534.47;5096246;28;20766;-68
2021/04/27 00:24:36;;;;;;;2.87;2.30;;;;;;;4.01;58.71;97538.19;5094848;28;20213;-65
2021/04/27 00:27:02;;;;;;;4.07;2.47;;;;;;;4.01;57.92;97532.94;5096295;28;20312;-67
2021/04/27 00:29:28;;;;;;;4.13;2.30;;;;;;;4.06;57.77;97525.72;5096480;28;20207;-64
2021/04/27 00:31:55;;;;;;;3.00;2.30;;;;;;;4.00;58.25;97531.25;5096215;28;20204;-64
2021/04/27 00:34:21;;;;;;;4.53;2.37;;;;;;;4.03;57.74;97530.25;5096245;28;20208;-64
2021/04/27 00:36:48;;;;;;;2.53;2.00;;;;;;;3.92;58.92;97522.97;5096145;28;20226;-64
2021/04/27 00:39:15;;;;;;;2.70;2.00;;;;;;;3.96;57.91;97523.63;5096221;28;20569;-64
2021/04/27 00:41:41;;;;;;;3.00;2.10;;;;;;;3.94;58.36;97526.34;5096100;28;20208;-64
2021/04/27 00:44:08;;;;;;;2.97;2.30;;;;;;;4.02;57.90;97520.69;5095864;28;20231;-67
2021/04/27 00:46:34;;;;;;;3.03;2.33;;;;;;;3.91;59.49;97526.50;5096082;28;20226;-67
2021/04/27 00:49:00;;;;;;;3.17;2.27;;;;;;;3.88;58.78;97518.84;5096157;28;20280;-68
2021/04/27 00:51:26;;;;;;;4.27;2.40;;;;;;;3.95;58.11;97517.59;5094457;28;20666;-65
2021/04/27 00:53:52;;;;;;;4.63;2.37;;;;;;;3.91;58.79;97516.03;5096015;28;20239;-65
2021/04/27 00:56:21;;;;;;;4.17;2.57;;;;;;;3.98;57.73;97512.19;5095898;28;20657;-65
2021/04/27 00:58:48;;;;;;;3.20;2.30;;;;;;;3.89;59.14;97515.28;5095347;28;20673;-66
2021/04/27 01:01:14;;;;;;;3.00;2.30;;;;;;;3.95;57.44;97507.13;5095444;28;20660;-66
2021/04/27 01:03:40;;;;;;;4.33;2.40;;;;;;;4.00;57.84;97505.13;5095685;28;20238;-67
2021/04/27 01:06:07;;;;;;;3.57;2.37;;;;;;;4.16;55.81;97511.19;5095604;28;20215;-67
2021/04/27 01:08:42;;;;;;;2.70;1.97;;;;;;;4.36;55.20;97513.59;5095602;28;20214;-67
2021/04/27 01:11:16;;;;;;;4.30;2.40;;;;;;;4.43;55.30;97503.63;5095570;28;20211;-67
2021/04/27 01:13:48;;;;;;;3.63;2.20;;;;;;;4.48;54.81;97506.84;5095378;28;20230;-67
2021/04/27 01:16:17;;;;;;;4.23;2.60;;;;;;;4.55;54.08;97506.44;5093659;28;20208;-67
2021/04/27 01:18:49;;;;;;;3.23;2.20;;;;;;;4.54;54.34;97502.13;5095552;28;20228;-67
2021/04/27 01:21:17;;;;;;;5.00;2.37;;;;;;;4.61;53.98;97510.47;5095565;28;20207;-67
2021/04/27 01:23:56;;;;;;;2.93;2.30;;;;;;;4.49;54.96;97504.16;5095079;28;20247;-67
2021/04/27 01:26:36;;;;;;;3.50;2.50;;;;;;;4.54;53.95;97506.50;5094845;28;20573;-65
2021/04/27 01:29:05;;;;;;;4.47;2.33;;;;;;;4.49;54.78;97504.16;5094975;28;20676;-64
2021/04/27 01:31:32;;;;;;;5.10;2.57;;;;;;;4.54;55.12;97499.50;5095210;28;20213;-64
2021/04/27 01:33:59;;;;;;;2.97;2.40;;;;;;;4.59;54.06;97494.84;5094885;28;20213;-64
2021/04/27 01:36:25;;;;;;;2.43;2.03;;;;;;;4.59;54.26;97492.22;5095063;28;20215;-64
2021/04/27 01:38:51;;;;;;;3.53;2.10;;;;;;;4.59;54.25;97492.22;5095097;28;20234;-64
2021/04/27 01:41:18;;;;;;;3.30;2.60;;;;;;;4.65;54.02;97494.50;5094747;28;20673;-64
2021/04/27 01:43:46;;;;;;;2.73;2.23;;;;;;;4.83;52.89;97493.47;5092934;28;20265;-68
2021/04/27 01:46:13;;;;;;;4.30;2.20;;;;;;;4.79;53.39;97486.75;5094839;28;20214;-68
2021/04/27 01:48:40;;;;;;;3.20;2.63;;;;;;;4.86;53.68;97493.31;5094772;28;20207;-67
2021/04/27 01:51:09;;;;;;;3.27;2.60;;;;;;;4.71;53.96;97483.69;5094876;28;20217;-69
2021/04/27 01:53:36;;;;;;;2.60;2.10;;;;;;;4.75;53.97;97481.75;5094518;28;20209;-66
2021/04/27 01:56:02;;;;;;;2.80;2.40;;;;;;;4.73;53.46;97487.09;5094629;28;20234;-66
2021/04/27 01:58:28;;;;;;;3.40;2.23;;;;;;;4.75;53.88;97479.13;5094555;28;20663;-67
2021/04/27 02:00:55;;;;;;;2.93;2.33;;;;;;;4.71;53.89;97478.47;5094309;28;20211;-68
2021/04/27 02:03:21;;;;;;;3.23;2.27;;;;;;;4.68;54.67;97478.66;5094484;28;20289;-68
2021/04/27 02:05:47;;;;;;;4.23;2.60;;;;;;;4.72;54.33;97469.69;5094544;28;20206;-68
2021/04/27 02:08:13;;;;;;;3.13;2.40;;;;;;;4.59;55.04;97476.53;5094426;28;20210;-64
2021/04/27 02:10:40;;;;;;;2.63;2.43;;;;;;;4.56;55.35;97468.00;5093661;28;20207;-65
2021/04/27 02:13:10;;;;;;;2.90;2.10;;;;;;;4.58;55.13;97468.78;5094634;28;20236;-67
2021/04/27 02:15:37;;;;;;;2.97;2.33;;;;;;;4.55;55.49;97461.94;5094215;28;20211;-65
2021/04/27 02:18:12;;;;;;;3.77;2.40;;;;;;;4.52;55.62;97462.09;5094360;28;20235;-66
2021/04/27 02:20:40;;;;;;;3.40;2.20;;;;;;;4.62;55.49;97467.66;5094259;28;20218;-65
2021/04/27 02:23:06;;;;;;;3.07;2.50;;;;;;;4.54;55.42;97459.41;5094149;28;20242;-65
2021/04/27 02:25:32;;;;;;;3.00;2.43;;;;;;;4.44;55.66;97456.47;5094240;28;20277;-65
2021/04/27 02:27:59;;;;;;;9.40;2.40;;;;;;;4.50;55.88;97452.66;5094222;28;20207;-65
2021/04/27 02:30:27;;;;;;;3.27;2.40;;;;;;;4.42;56.14;97453.09;5094177;28;20203;-65
2021/04/27 02:32:54;;;;;;;4.03;2.70;;;;;;;4.37;57.16;97455.13;5094037;28;20206;-65
2021/04/27 02:35:22;;;;;;;2.77;2.10;;;;;;;4.23;58.19;97455.00;5092406;28;20203;-64
2021/04/27 02:37:51;;;;;;;3.97;2.30;;;;;;;4.20;57.65;97456.97;5092991;28;20273;-65
2021/04/27 02:40:22;;;;;;;2.57;2.17;;;;;;;4.19;57.37;97457.88;5093805;28;20208;-65
2021/04/27 02:42:49;;;;;;;2.87;2.47;;;;;;;4.21;57.36;97456.06;5094090;28;20226;-65
2021/04/27 02:45:16;;;;;;;4.00;2.73;;;;;;;4.16;57.56;97453.66;5093852;28;20577;-66
2021/04/27 02:47:43;;;;;;;2.97;2.40;;;;;;;4.04;58.93;97450.88;5093802;28;20207;-66
2021/04/27 02:50:11;;;;;;;2.67;2.23;;;;;;;4.04;58.64;97454.34;5093384;28;20207;-65
2021/04/27 02:52:39;;;;;;;2.97;2.37;;;;;;;4.08;58.32;97441.94;5093846;28;20212;-65
2021/04/27 02:55:07;;;;;;;2.10;1.90;;;;;;;4.05;58.27;97450.81;5093306;28;20252;-65
2021/04/27 02:57:33;;;;;;;3.07;2.00;;;;;;;4.07;57.78;97438.50;5093357;28;20729;-65
2021/04/27 02:59:59;;;;;;;2.67;2.33;;;;;;;3.98;59.29;97438.97;5093738;28;20296;-65
2021/04/27 03:02:24;;;;;;;4.03;2.43;;;;;;;3.96;59.08;97430.38;5091461;28;20313;-65
2021/04/27 03:04:50;;;;;;;2.50;2.20;;;;;;;3.98;60.27;97431.13;5093174;28;20207;-66
2021/04/27 03:07:16;;;;;;;5.33;2.70;;;;;;;3.96;60.36;97430.38;5093557;28;20219;-66
2021/04/27 03:09:43;;;;;;;3.23;2.30;;;;;;;3.97;59.50;97426.84;5093498;28;20213;-67
2021/04/27 03:12:09;;;;;;;2.87;2.53;;;;;;;4.04;58.93;97428.19;5093182;28;20212;-65
2021/04/27 03:14:35;;;;;;;4.13;2.63;;;;;;;4.03;58.74;97430.91;5093686;28;20243;-65
2021/04/27 03:17:01;;;;;;;3.03;2.47;;;;;;;4.08;58.92;97434.94;5093392;28;20293;-65
2021/04/27 03:19:27;;;;;;;4.30;2.50;;;;;;;4.14;58.68;97439.00;5093300;28;20206;-65
2021/04/27 03:21:53;;;;;;;2.90;2.37;;;;;;;4.27;58.02;97435.63;5093168;28;20211;-65
2021/04/27 03:24:19;;;;;;;5.40;2.80;;;;;;;4.27;58.22;97435.63;5093246;28;20288;-66
2021/04/27 03:26:46;;;;;;;3.10;2.70;;;;;;;4.21;58.62;97442.97;5093006;28;20669;-66
2021/04/27 03:29:12;;;;;;;2.80;2.53;;;;;;;4.20;58.57;97434.28;5091579;28;20203;-66
2021/04/27 03:31:38;;;;;;;2.87;2.57;;;;;;;4.14;58.94;97445.06;5092798;28;20306;-66
2021/04/27 03:34:04;;;;;;;4.20;2.47;;;;;;;4.15;59.31;97438.91;5093253;28;20212;-64
2021/04/27 03:36:30;;;;;;;3.60;2.60;;;;;;;4.14;59.05;97439.84;5093083;28;20212;-64
2021/04/27 03:38:57;;;;;;;3.13;2.67;;;;;;;4.10;59.09;97442.72;5092854;28;20777;-64
2021/04/27 03:41:23;;;;;;;2.70;2.40;;;;;;;4.12;59.83;97441.72;5093146;28;20215;-65
2021/04/27 03:43:50;;;;;;;3.70;2.50;;;;;;;4.12;59.68;97433.88;5092656;28;20738;-64
2021/04/27 03:46:16;;;;;;;2.50;2.20;;;;;;;4.07;59.74;97435.03;5092998;28;20198;-65
2021/04/27 03:48:42;;;;;;;4.53;3.53;;;;;;;4.01;61.09;97438.84;5093340;28;20250;-64
2021/04/27 03:51:08;;;;;;;3.23;2.60;;;;;;;3.98;60.35;97433.75;5097129;28;20351;-65
2021/04/27 03:53:34;;;;;;;3.50;2.67;;;;;;;4.04;59.48;97433.41;5095826;28;20662;-64
2021/04/27 03:56:00;;;;;;;3.93;2.57;;;;;;;4.01;60.04;97438.84;5096601;28;20216;-65
2021/04/27 03:58:26;;;;;;;4.10;2.60;;;;;;;3.87;61.16;97430.91;5096751;28;20225;-65
2021/04/27 04:00:53;;;;;;;4.43;3.03;;;;;;;3.85;61.12;97431.91;5096976;28;20210;-64
2021/04/27 04:03:19;;;;;;;3.40;3.10;;;;;;;3.95;60.36;97433.06;5096996;28;20242;-65
2021/04/27 04:05:45;;;;;;;4.07;3.03;;;;;;;3.89;60.40;97431.66;5096811;28;20213;-65
2021/04/27 04:08:10;;;;;;;3.40;2.83;;;;;;;4.04;59.80;97433.41;5096785;28;20221;-65
2021/04/27 04:10:36;;;;;;;4.80;3.17;;;;;;;3.92;60.40;97434.09;5096778;28;20242;-65
2021/04/27 04:13:02;;;;;;;4.93;2.83;;;;;;;3.88;61.02;97435.19;5096677;28;20295;-65
2021/04/27 04:15:28;;;;;;;4.47;3.03;;;;;;;3.91;60.81;97435.00;5096741;28;20374;-66
2021/04/27 04:17:55;;;;;;;2.93;2.50;;;;;;;3.90;61.12;97440.31;5096714;28;20637;-66
2021/04/27 04:20:24;;;;;;;3.80;2.80;;;;;;;3.82;61.28;97432.06;5094984;28;20215;-66
2021/04/27 04:22:51;;;;;;;4.50;3.30;;;;;;;3.90;60.94;97445.53;5096525;28;20234;-64
2021/04/27 04:25:17;;;;;;;4.07;3.00;;;;;;;3.92;60.79;97444.53;5096262;28;20737;-64
2021/04/27 04:27:45;;;;;;;6.20;3.73;;;;;;;3.86;61.42;97444.88;5096207;28;20662;-64
2021/04/27 04:30:13;;;;;;;4.83;3.50;;;;;;;3.91;61.40;97437.63;5096375;28;20203;-64
2021/04/27 04:32:40;;;;;;;4.63;3.43;;;;;;;3.97;60.93;97437.28;5096544;28;20215;-65
2021/04/27 04:35:08;;;;;;;4.90;2.77;;;;;;;3.95;61.91;97447.00;5096362;28;20218;-65
2021/04/27 04:37:34;;;;;;;6.50;3.40;;;;;;;3.94;62.60;97442.69;5096048;28;20735;-65
2021/04/27 04:40:00;;;;;;;3.83;2.97;;;;;;;3.93;62.44;97435.78;5096309;28;20212;-65
2021/04/27 04:42:26;;;;;;;3.30;2.70;;;;;;;3.92;62.60;97444.53;5096131;28;20203;-65
2021/04/27 04:44:52;;;;;;;4.17;3.00;;;;;;;3.93;62.71;97432.31;5096325;28;20211;-65
2021/04/27 04:47:19;;;;;;;5.50;3.40;;;;;;;3.99;62.40;97435.47;5094442;28;20245;-65
2021/04/27 04:49:45;;;;;;;5.20;3.50;;;;;;;4.02;62.85;97437.91;5096030;28;20215;-65
2021/04/27 04:52:12;;;;;;;6.67;4.00;;;;;;;4.08;62.78;97434.94;5096049;28;20296;-64
2021/04/27 04:54:38;;;;;;;4.60;3.20;;;;;;;4.09;62.47;97435.81;5095988;28;20210;-64
2021/04/27 04:57:05;;;;;;;4.40;2.87;;;;;;;4.16;62.63;97443.22;5096027;28;20210;-65
2021/04/27 04:59:31;;;;;;;4.30;3.20;;;;;;;4.19;63.11;97443.06;5095629;28;20218;-65
2021/04/27 05:01:57;;;;;;;4.50;2.93;;;;;;;4.17;64.33;97439.66;5094929;28;20208;-65
2021/04/27 05:04:23;;;;;;;4.23;3.27;;;;;;;4.12;65.91;97446.09;5095447;28;20746;-64
2021/04/27 05:06:50;;;;;;;4.97;2.80;;;;;;;4.18;65.28;97457.06;5095463;28;20213;-64
2021/04/27 05:09:18;;;;;;;4.30;3.10;;;;;;;4.22;65.19;97448.09;5095905;28;20215;-64
2021/04/27 05:11:44;;;;;;;6.47;2.90;;;;;;;4.27;66.17;97451.31;5095759;28;20379;-64
2021/04/27 05:14:10;;;;;;;3.07;2.70;;;;;;;4.37;65.17;97454.25;5093595;28;20246;-63
2021/04/27 05:16:36;;;;;;;4.20;2.60;;;;;;;4.47;65.06;97452.84;5095250;28;20246;-64
2021/04/27 05:19:03;;;;;;;3.73;3.20;;;;;;;4.53;63.69;97455.94;5095528;28;20210;-63
2021/04/27 05:21:29;;;;;;;5.77;3.10;;;;;;;4.60;63.62;97452.06;5095300;28;20217;-63
2021/04/27 05:23:55;;;;;;;3.53;2.87;;;;;;;4.62;64.89;97457.19;5095357;28;20259;-63
2021/04/27 05:26:22;;;;;;;5.67;2.97;;;;;;;4.69;65.09;97448.91;5095355;28;20218;-64
2021/04/27 05:28:48;;;;;;;3.97;3.60;;;;;;;4.80;64.40;97458.78;5095437;28;20222;-64
2021/04/27 05:31:14;;;;;;;5.00;3.40;;;;;;;4.90;65.13;97446.84;5095166;28;20284;-64
2021/04/27 05:33:40;;;;;;;5.10;2.73;;;;;;;5.03;62.70;97453.94;5095263;28;20224;-64
2021/04/27 05:36:07;;;;;;;3.33;2.70;;;;;;;5.20;62.89;97451.13;5095039;28;20591;-63
2021/04/27 05:38:33;;;;;;;3.70;2.67;;;;;;;5.40;61.56;97455.22;5094481;28;20222;-63
2021/04/27 05:40:59;;;;;;;4.03;3.07;;;;;;;5.60;60.50;97447.84;5094007;28;20228;-63
2021/04/27 05:43:26;;;;;;;6.30;3.13;;;;;;;5.83;59.55;97451.72;5094888;28;20240;-63
2021/04/27 05:45:52;;;;;;;7.03;3.00;;;;;;;6.13;58.35;97445.44;5094936;28;20205;-63
2021/04/27 05:48:18;;;;;;;4.00;2.70;;;;;;;6.45;57.38;97446.88;5094704;28;20208;-63
2021/04/27 05:50:44;;;;;;;3.33;2.50;;;;;;;6.79;58.13;97449.00;5094909;28;20218;-63
2021/04/27 05:53:10;;;;;;;5.03;3.30;;;;;;;7.40;56.86;97433.50;5094573;28;20218;-63
2021/04/27 05:55:38;;;;;;;3.87;3.07;;;;;;;8.00;54.80;97427.50;5094813;28;20244;-63
2021/04/27 05:58:04;;;;;;;5.17;2.93;;;;;;;8.52;54.16;97428.13;5094665;28;20217;-64
2021/04/27 06:00:31;;;;;;;4.87;2.73;;;;;;;8.83;52.02;97430.25;5094664;28;20217;-64
2021/04/27 06:02:57;;;;;;;3.50;2.97;;;;;;;9.05;51.33;97416.31;5094600;28;20241;-64
2021/04/27 06:05:23;;;;;;;5.87;3.13;;;;;;;9.05;51.02;97432.13;5093002;28;20666;-64
2021/04/27 06:07:49;;;;;;;3.43;3.13;;;;;;;8.93;51.54;97433.88;5094546;28;20221;-64
2021/04/27 06:10:15;;;;;;;4.37;3.47;;;;;;;8.90;53.17;97430.63;5094268;28;20725;-64
2021/04/27 06:12:40;;;;;;;4.80;3.30;;;;;;;8.95;51.69;97436.41;5094153;28;20371;-64
2021/04/27 06:15:08;;;;;;;3.63;3.30;;;;;;;9.19;51.51;97438.03;5094302;28;20238;-64
2021/04/27 06:17:35;;;;;;;5.70;3.10;;;;;;;9.44;50.35;97439.69;5094493;28;20207;-64
2021/04/27 06:20:04;;;;;;;3.60;2.97;;;;;;;9.74;48.80;97438.19;5094300;28;20222;-64
2021/04/27 06:22:30;;;;;;;5.03;3.00;;;;;;;9.98;47.67;97430.19;5093176;28;20207;-64
2021/04/27 06:24:56;;;;;;;3.93;3.13;;;;;;;9.93;46.25;97421.78;5093317;28;20261;-65
2021/04/27 06:27:23;;;;;;;4.53;3.43;;;;;;;9.85;48.73;97429.47;5093425;28;20210;-66
2021/04/27 06:29:50;;;;;;;4.07;3.20;;;;;;;9.51;49.17;97436.50;5093722;28;20217;-64
2021/04/27 06:32:16;;;;;;;4.20;3.40;;;;;;;9.08;49.56;97431.91;5091769;28;20217;-62
2021/04/27 06:34:43;;;;;;;5.50;3.20;;;;;;;8.60;49.62;97435.50;5093524;28;20567;-63
2021/04/27 06:37:09;;;;;;;5.33;3.20;;;;;;;8.31;51.75;97434.09;5093537;28;20210;-65
2021/04/27 06:39:35;;;;;;;5.13;3.37;;;;;;;8.22;52.72;97430.34;5093365;28;20743;-65
2021/04/27 06:42:01;;;;;;;2.77;2.57;;;;;;;8.21;50.76;97439.16;5093076;28;20252;-65
2021/04/27 06:44:27;;;;;;;5.63;3.50;;;;;;;8.14;52.54;97430.00;5093248;28;20230;-64
2021/04/27 06:46:53;;;;;;;6.10;3.60;;;;;;;8.24;51.31;97427.59;5093278;28;20207;-64
2021/04/27 06:49:19;;;;;;;6.10;3.20;;;;;;;8.21;52.17;97433.09;5093000;28;20222;-64
2021/04/27 06:51:46;;;;;;;5.57;3.00;;;;;;;8.25;51.95;97431.91;5093144;28;20218;-64
2021/04/27 06:54:11;;;;;;;4.57;3.27;;;;;;;8.26;55.50;97431.78;5092827;28;20252;-65
2021/04/27 06:56:37;;;;;;;4.73;3.20;;;;;;;8.32;54.89;97430.53;5093120;28;20252;-65
2021/04/27 06:59:03;;;;;;;5.23;3.70;;;;;;;8.40;54.33;97423.75;5091501;28;20213;-64
2021/04/27 07:01:30;;;;;;;4.10;3.20;;;;;;;8.45;55.03;97424.25;5092830;28;20218;-64
2021/04/27 07:03:56;;;;;;;4.97;2.90;;;;;;;8.45;51.30;97421.63;5092873;28;20257;-63
2021/04/27 07:06:22;;;;;;;7.13;3.50;;;;;;;8.56;51.66;97428.78;5093049;28;20211;-65
2021/04/27 07:08:48;;;;;;;4.23;3.40;;;;;;;8.57;53.38;97428.66;5091411;28;20243;-64
2021/04/27 07:11:14;;;;;;;4.07;3.20;;;;;;;8.70;53.15;97418.06;5090430;28;20214;-64
2021/04/27 07:13:40;;;;;;;4.03;3.60;;;;;;;8.76;51.26;97415.00;5092639;28;20238;-64
2021/04/27 07:16:06;;;;;;;4.63;4.10;;;;;;;8.73;51.36;97420.47;5092885;28;20260;-64
2021/04/27 07:18:32;;;;;;;5.00;3.53;;;;;;;8.71;50.97;97415.34;5092499;28;20249;-64
2021/04/27 07:20:59;;;;;;;6.77;3.90;;;;;;;8.82;53.86;97415.38;5092866;28;20255;-63
2021/04/27 07:23:25;;;;;;;5.77;3.90;;;;;;;9.02;54.18;97416.53;5092218;28;20223;-64
2021/04/27 07:25:52;;;;;;;4.10;3.50;;;;;;;9.05;51.33;97419.78;5091235;28;20221;-63
2021/04/27 07:28:18;;;;;;;4.53;3.77;;;;;;;9.14;49.18;97410.34;5092531;28;20210;-63
2021/04/27 07:30:44;;;;;;;5.30;3.50;;;;;;;9.17;52.07;97404.88;5092867;28;20229;-64
2021/04/27 07:33:11;;;;;;;4.57;3.40;;;;;;;9.20;51.18;97409.91;5092733;28;20207;-64
2021/04/27 07:35:37;;;;;;;4.47;3.40;;;;;;;9.23;49.64;97407.88;5092952;28;20301;-64
2021/04/27 07:38:04;;;;;;;4.53;3.40;;;;;;;9.25;49.65;97410.41;5092661;28;20260;-63
2021/04/27 07:40:31;;;;;;;5.50;3.50;;;;;;;9.23;48.37;97407.88;5092532;28;20203;-63
2021/04/27 07:42:58;;;;;;;6.37;3.90;;;;;;;9.26;47.86;97415.56;5092435;28;20226;-64
2021/04/27 07:45:30;;;;;;;5.10;3.53;;;;;;;9.21;48.48;97414.22;5092556;28;20320;-65
2021/04/27 07:47:56;;;;;;;4.57;3.80;;;;;;;9.37;48.41;97418.19;5092131;28;20240;-65
2021/04/27 07:50:22;;;;;;;4.97;3.80;;;;;;;9.62;55.09;97417.19;5092299;28;20570;-64
2021/04/27 07:52:48;;;;;;;7.13;4.03;;;;;;;9.80;50.69;97415.78;5090853;28;20581;-65
2021/04/27 07:55:14;;;;;;;4.53;3.77;;;;;;;9.88;49.00;97416.03;5092580;28;20210;-64
2021/04/27 07:57:40;;;;;;;7.17;3.90;;;;;;;9.86;48.66;97420.59;5092352;28;20267;-65
2021/04/27 08:00:09;;;;;;;4.93;4.13;;;;;;;9.85;52.52;97413.63;5092395;28;20226;-65
2021/04/27 08:02:36;;;;;;;5.07;3.70;;;;;;;9.98;49.19;97411.72;5092387;28;20246;-65
2021/04/27 08:05:02;;;;;;;7.70;4.03;;;;;;;10.08;48.98;97416.19;5092179;28;20211;-63
2021/04/27 08:07:28;;;;;;;6.80;3.97;;;;;;;10.07;47.40;97409.22;5092093;28;20685;-63
2021/04/27 08:09:54;;;;;;;6.90;4.50;;;;;;;10.01;46.70;97407.03;5092311;28;20206;-63
2021/04/27 08:12:20;;;;;;;6.03;4.30;;;;;;;10.13;47.17;97413.16;5092233;28;20206;-63
2021/04/27 08:14:46;;;;;;;4.57;4.10;;;;;;;10.27;45.88;97412.94;5091750;28;20246;-64
2021/04/27 08:17:13;;;;;;;5.83;4.40;;;;;;;10.41;46.62;97412.69;5092182;28;20313;-65
2021/04/27 08:19:39;;;;;;;6.07;4.00;;;;;;;10.44;50.78;97412.41;5090649;28;20216;-63
2021/04/27 08:22:06;;;;;;;4.67;3.70;;;;;;;10.49;49.23;97410.25;5092168;28;20209;-63
2021/04/27 08:24:32;;;;;;;5.30;4.00;;;;;;;10.64;47.92;97409.84;5091856;28;20240;-63
2021/04/27 08:26:58;;;;;;;5.60;3.87;;;;;;;10.70;47.99;97413.84;5091841;28;20211;-64
2021/04/27 08:29:25;;;;;;;6.63;4.57;;;;;;;10.95;48.18;97414.34;5091873;28;20233;-64
2021/04/27 08:31:50;;;;;;;5.17;3.70;;;;;;;10.90;49.54;97413.84;5092151;28;20249;-64
2021/04/27 08:34:17;;;;;;;6.67;4.57;;;;;;;10.98;45.86;97407.94;5092171;28;20658;-64
2021/04/27 08:36:44;;;;;;;6.27;4.30;;;;;;;11.02;45.89;97417.31;5094244;28;20590;-63
2021/04/27 08:39:10;;;;;;;4.90;4.00;;;;;;;10.89;45.63;97404.25;5095495;28;20208;-63
2021/04/27 08:41:37;;;;;;;4.67;4.20;;;;;;;10.93;46.39;97405.69;5095728;28;20210;-63
2021/04/27 08:44:04;;;;;;;7.73;4.20;;;;;;;11.13;45.15;97398.78;5095311;28;20230;-63
2021/04/27 08:46:30;;;;;;;5.93;4.10;;;;;;;11.32;46.89;97396.28;5093498;28;20204;-64
2021/04/27 08:48:57;;;;;;;7.53;4.67;;;;;;;11.57;45.25;97398.53;5095322;28;20210;-65
2021/04/27 08:51:23;;;;;;;6.77;4.50;;;;;;;11.77;46.22;97392.41;5095361;28;20497;-63
2021/04/27 08:53:50;;;;;;;10.37;4.97;;;;;;;11.96;45.58;97389.84;5095558;28;20214;-64
2021/04/27 08:56:16;;;;;;;5.53;4.20;;;;;;;12.04;45.01;97392.69;5095466;28;20228;-64
2021/04/27 08:58:42;;;;;;;6.33;4.67;;;;;;;11.96;43.59;97393.34;5095413;28;20224;-64
2021/04/27 09:01:08;;;;;;;5.77;4.40;;;;;;;11.87;42.87;97398.59;5095037;28;20220;-63
2021/04/27 09:03:42;;;;;;;6.93;4.30;;;;;;;11.80;45.61;97389.50;5094809;28;20730;-63
2021/04/27 09:06:15;;;;;;;5.00;3.97;;;;;;;11.97;47.58;97388.88;5095391;28;20213;-63
2021/04/27 09:08:43;;;;;;;6.77;4.60;;;;;;;12.02;44.35;97381.38;5094960;28;20227;-63
2021/04/27 09:11:26;;;;;;;5.07;4.40;;;;;;;12.23;42.67;97384.81;5093951;28;20218;-63
2021/04/27 09:14:07;;;;;;;6.37;4.80;;;;;;;12.29;43.70;97384.28;5095091;28;20244;-63
2021/04/27 09:16:33;;;;;;;6.40;4.93;;;;;;;12.33;42.93;97380.38;5094703;28;20231;-63
2021/04/27 09:18:59;;;;;;;8.00;4.23;;;;;;;12.21;43.32;97377.00;5094963;28;20211;-63
2021/04/27 09:21:32;;;;;;;7.13;5.00;;;;;;;12.36;42.29;97374.81;5094967;28;20285;-63
2021/04/27 09:24:11;;;;;;;7.20;4.60;;;;;;;12.48;44.25;97371.91;5094850;28;20287;-63
2021/04/27 09:26:36;;;;;;;7.47;4.90;;;;;;;12.60;42.84;97377.94;5094535;28;20210;-63
2021/04/27 09:29:03;;;;;;;5.50;4.60;;;;;;;12.65;43.15;97373.09;5094712;28;20244;-63
2021/04/27 09:31:31;;;;;;;7.67;4.70;;;;;;;12.74;44.50;97365.13;5094507;28;20225;-63
2021/04/27 09:34:18;;;;;;;9.03;5.60;;;;;;;12.75;41.48;97371.25;5094947;28;20208;-64
2021/04/27 09:36:45;;;;;;;5.43;4.80;;;;;;;13.04;41.68;97366.84;5094975;28;20209;-63
2021/04/27 09:39:12;;;;;;;6.83;5.47;;;;;;;12.97;40.98;97355.94;5092892;28;20209;-64
2021/04/27 09:41:39;;;;;;;6.73;5.30;;;;;;;13.15;40.95;97353.47;5094572;28;20215;-63
2021/04/27 09:44:05;;;;;;;8.73;5.13;;;;;;;13.25;41.67;97347.16;5094478;28;20238;-64
2021/04/27 09:46:31;;;;;;;6.50;5.13;;;;;;;13.34;43.04;97353.44;5094011;28;20202;-63
2021/04/27 09:48:58;;;;;;;6.80;5.03;;;;;;;13.45;41.28;97342.66;5094280;28;20624;-63
2021/04/27 09:51:26;;;;;;;7.17;5.10;;;;;;;13.42;41.65;97346.44;5094264;28;20215;-63
2021/04/27 09:53:54;;;;;;;7.33;4.73;;;;;;;13.45;42.04;97338.19;5094456;28;20206;-63
2021/04/27 09:56:36;;;;;;;6.43;5.37;;;;;;;13.60;41.08;97338.56;5094245;28;20594;-63
2021/04/27 09:59:04;;;;;;;7.97;5.40;;;;;;;13.63;41.81;97339.13;5093802;28;20220;-63
2021/04/27 10:01:31;;;;;;;7.20;5.47;;;;;;;13.55;44.50;97330.19;5094039;28;20572;-64
2021/04/27 10:03:57;;;;;;;6.30;4.80;;;;;;;13.55;41.55;97330.19;5093907;28;20238;-63
2021/04/27 10:06:23;;;;;;;8.47;5.20;;;;;;;13.56;39.98;97327.41;5092331;28;20221;-63
2021/04/27 10:08:50;;;;;;;6.97;5.17;;;;;;;13.53;39.77;97326.84;5093930;28;20209;-64
2021/04/27 10:11:16;;;;;;;6.63;5.10;;;;;;;13.64;42.33;97321.38;5093892;28;20248;-64
2021/04/27 10:13:44;;;;;;;7.27;5.60;;;;;;;13.92;44.74;97323.94;5093572;28;20602;-63
2021/04/27 10:16:10;;;;;;;7.93;5.47;;;;;;;14.00;42.34;97320.53;5093570;28;20206;-64
2021/04/27 10:18:36;;;;;;;6.93;5.07;;;;;;;13.95;39.48;97317.50;5093446;28;20672;-63
2021/04/27 10:21:04;;;;;;;7.27;5.27;;;;;;;13.86;40.36;97318.34;5093869;28;20260;-63
2021/04/27 10:23:31;;;;;;;7.13;5.80;;;;;;;14.08;41.05;97310.00;5093734;28;20254;-64
2021/04/27 10:25:57;;;;;;;9.50;5.33;;;;;;;14.08;39.88;97312.66;5093522;28;20567;-64
2021/04/27 10:28:23;;;;;;;7.67;5.50;;;;;;;14.10;38.16;97305.38;5093550;28;20229;-63
2021/04/27 10:30:50;;;;;;;7.50;5.80;;;;;;;14.10;41.82;97305.38;5092971;28;20301;-64
2021/04/27 10:33:19;;;;;;;7.60;5.43;;;;;;;14.21;39.74;97302.56;5092493;28;20237;-63
2021/04/27 10:36:09;;;;;;;7.40;5.43;;;;;;;14.11;38.90;97291.13;5093499;28;20276;-63
2021/04/27 10:38:49;;;;;;;7.87;5.60;;;;;;;14.30;42.35;97288.41;5093493;28;20210;-64
2021/04/27 10:41:17;;;;;;;5.83;5.23;;;;;;;14.60;42.18;97293.38;5093308;28;20268;-64
2021/04/27 10:43:52;;;;;;;7.70;5.67;;;;;;;14.67;41.45;97289.13;5092959;28;20280;-64
2021/04/27 10:46:56;;;;;;;6.40;5.37;;;;;;;14.59;39.04;97278.38;5093080;28;20259;-63
2021/04/27 10:49:30;;;;;;;8.97;5.40;;;;;;;14.62;40.53;97270.13;5093083;28;20270;-63
2021/04/27 10:51:58;;;;;;;6.63;5.37;;;;;;;14.77;41.23;97258.78;5093132;28;20206;-64
2021/04/27 10:54:29;;;;;;;7.10;5.70;;;;;;;15.09;39.49;97268.88;5092756;28;20739;-64
2021/04/27 10:56:56;;;;;;;7.83;5.90;;;;;;;14.99;37.89;97257.47;5093009;28;20218;-64
2021/04/27 10:59:24;;;;;;;7.00;5.90;;;;;;;14.80;36.90;97261.13;5090796;28;20218;-64
2021/04/27 11:02:11;;;;;;;7.27;5.33;;;;;;;14.87;38.03;97258.72;5093208;28;20210;-63
2021/04/27 11:04:42;;;;;;;8.17;5.77;;;;;;;14.91;43.77;97260.91;5092994;28;20238;-64
2021/04/27 11:07:34;;;;;;;9.23;5.80;;;;;;;15.00;42.32;97256.50;5093110;28;20215;-64
2021/04/27 11:10:31;;;;;;;7.83;6.40;;;;;;;15.20;44.21;97250.81;5093017;28;20214;-64
2021/04/27 11:13:00;;;;;;;6.97;5.67;;;;;;;15.37;43.71;97235.81;5092587;28;20242;-64
2021/04/27 11:15:29;;;;;;;8.10;5.40;;;;;;;15.54;38.37;97248.25;5092498;28;20809;-64
2021/04/27 11:18:02;;;;;;;7.97;5.53;;;;;;;15.55;38.06;97239.25;5092652;28;20215;-64
2021/04/27 11:20:50;;;;;;;7.47;5.70;;;;;;;15.62;42.45;97238.47;5092571;28;20222;-64
2021/04/27 11:23:36;;;;;;;8.87;6.10;;;;;;;15.81;42.14;97234.72;5092794;28;20226;-64
2021/04/27 11:26:04;;;;;;;8.27;6.20;;;;;;;15.98;42.60;97238.13;5090814;28;20699;-64
2021/04/27 11:28:54;;;;;;;8.80;5.97;;;;;;;15.84;40.20;97231.75;5092420;28;20217;-64
2021/04/27 11:31:20;;;;;;;7.70;6.20;;;;;;;15.93;36.16;97228.13;5092722;28;20210;-64
2021/04/27 11:33:56;;;;;;;7.83;5.30;;;;;;;15.82;37.11;97231.09;5092676;28;20570;-64
2021/04/27 11:36:35;;;;;;;9.03;6.00;;;;;;;15.76;40.94;97229.06;5092614;28;20267;-64
2021/04/27 11:39:09;;;;;;;7.83;6.30;;;;;;;15.86;40.39;97227.09;5092541;28;20259;-64
2021/04/27 11:41:46;;;;;;;9.03;6.40;;;;;;;15.98;36.91;97225.81;5092410;28;20671;-64